Terminal Aerodrome Forecast
Issued by NWS Pocatello, ID

Home | Current Version | Previous Version | Text Only | Print | Product List | Glossary On
Versions: 1 2 3 4 5 6 7 8 9 10 11 12 13 14 15 16 17
000
FTUS45 KPIH 220520
TAFBYI
TAF
KBYI 220520Z 2206/2306 VRB06KT P6SM VCSH SCT080 OVC120
      TEMPO 2206/2207 -SHRA OVC060
     FM220900 VRB06KT P6SM BKN090 OVC150
     FM221800 28010KT P6SM -SHRA VCTS SCT050CB OVC080=

USA.gov is the U.S. government's official web portal to all federal, state and local government web resources and services.